Overton, Nevada
Current Conditions -  °F | °C
As of 12:58 AM on Saturday 25 Oct 2014 (Local Time) from KLSV Reporting Station
Clear Clear  
Wind Chill: 66°   Ceiling: Unl
Heat Index: 66°   Visibility: 10mi
Dew Point: 34°   Wind: 5mph
Humidity: 31%   Direction: 30°NNE
Pressure: 30.02"   Gusts: NA
Location:  36.54°N, 114.45°W
Report Text: KLSV 250758Z AUTO 03004KT 10SM CLR 19/01 A3002 RMK AO2 SLP148 T01900013 403040145 $
Loading
Personal Weather Stations






























Interactive Weather Map
Tropical Storm Tracking
New forecast layout! Learn more

10-Day Weather Forecast

Advertisements
Track Severe Weather on mobile